createdAt,value
2022-08-26T05:06:39.424Z,72.65
2022-08-26T05:11:42.372Z,72.21
2022-08-26T05:16:44.643Z,72.03
2022-08-26T05:21:50.084Z,71.88
2022-08-26T05:26:53.134Z,71.58
2022-08-26T05:31:55.980Z,71.41
2022-08-26T05:36:58.981Z,70.61
2022-08-26T05:42:01.327Z,70.39
2022-08-26T05:47:04.604Z,70.47
2022-08-26T05:52:08.192Z,70.51
2022-08-26T05:57:13.848Z,69.89
2022-08-26T06:02:16.210Z,69.51
2022-08-26T06:07:38.916Z,69.03
2022-08-26T06:12:42.610Z,68.73
2022-08-26T06:17:46.502Z,68.57
2022-08-26T06:23:07.371Z,68.41
2022-08-26T06:28:10.342Z,68.07
2022-08-26T06:33:16.264Z,67.64
2022-08-26T06:38:18.560Z,67.28
2022-08-26T06:43:26.491Z,67.86
2022-08-26T06:48:28.941Z,66.98
2022-08-26T06:53:31.667Z,66.35
2022-08-26T06:58:35.314Z,65.04
2022-08-26T07:03:39.755Z,64.35
2022-08-26T07:08:42.210Z,64.39
2022-08-26T07:13:44.787Z,63.89
2022-08-26T07:18:48.905Z,64.09
2022-08-26T07:23:56.387Z,63.86
2022-08-26T07:29:01.755Z,62.64
2022-08-26T07:34:04.494Z,61.91
2022-08-26T07:39:07.583Z,60.81
2022-08-26T07:44:10.211Z,60.11
2022-08-26T07:49:12.609Z,58.67
2022-08-26T07:54:15.310Z,56.87
2022-08-26T07:59:18.494Z,55.13
2022-08-26T08:04:26.040Z,54.04
2022-08-26T08:09:28.835Z,52.70
2022-08-26T08:14:31.090Z,51.20
2022-08-26T08:19:36.798Z,50.90
2022-08-26T08:24:41.417Z,51.53
2022-08-26T08:29:44.541Z,52.02
2022-08-26T08:34:47.198Z,50.75
2022-08-26T08:39:49.790Z,42.93
2022-08-26T08:44:57.236Z,37.49
2022-08-26T08:50:06.638Z,35.91
2022-08-26T08:55:10.375Z,33.39
2022-08-26T09:00:19.351Z,32.57
2022-08-26T09:05:32.027Z,38.32
2022-08-26T09:10:40.403Z,38.93
2022-08-26T09:15:54.759Z,36.25
2022-08-26T09:21:00.464Z,38.39
2022-08-26T09:26:14.231Z,38.13
2022-08-26T09:31:25.156Z,38.51
2022-08-26T09:36:42.442Z,36.32
2022-08-26T09:41:44.717Z,39.34
2022-08-26T09:47:01.270Z,35.46
2022-08-26T09:52:11.237Z,37.67
2022-08-26T09:57:20.858Z,41.89
2022-08-26T10:02:32.598Z,43.28
2022-08-26T10:07:39.269Z,45.47
2022-08-26T10:12:58.408Z,41.08
2022-08-26T10:18:14.243Z,38.77
2022-08-26T10:23:25.780Z,42.20
2022-08-26T10:28:31.746Z,40.35
2022-08-26T10:33:34.073Z,42.66
2022-08-26T10:38:41.101Z,38.46
2022-08-26T10:43:53.806Z,36.73
2022-08-26T10:49:03.310Z,37.99
2022-08-26T10:54:27.069Z,38.91
2022-08-26T10:59:53.079Z,34.91
2022-08-26T11:05:06.672Z,37.50
2022-08-26T11:10:08.941Z,31.39
2022-08-26T11:15:36.828Z,37.72
2022-08-26T11:20:47.212Z,43.61
2022-08-26T11:26:01.292Z,45.40
2022-08-26T11:31:09.591Z,46.99
2022-08-26T11:36:28.649Z,46.12
2022-08-26T11:41:32.960Z,44.94
2022-08-26T11:46:37.611Z,43.08
2022-08-26T11:51:41.897Z,46.14
2022-08-26T11:56:50.282Z,47.73
2022-08-26T12:01:54.614Z,48.66
2022-08-26T12:06:58.668Z,49.77
2022-08-26T12:12:23.011Z,50.23
2022-08-26T12:17:28.372Z,51.41
2022-08-26T12:22:38.774Z,52.41
2022-08-26T12:27:47.872Z,52.79
2022-08-26T12:33:22.119Z,52.42
2022-08-26T12:38:26.174Z,52.69
2022-08-26T12:43:45.920Z,53.03
2022-08-26T12:48:49.734Z,53.78
2022-08-26T12:53:53.551Z,54.19
2022-08-26T12:59:25.259Z,54.33
2022-08-26T13:04:41.114Z,54.31
2022-08-26T13:09:43.568Z,54.30
2022-08-26T13:14:47.165Z,55.06
2022-08-26T13:19:49.538Z,55.25
2022-08-26T13:24:55.478Z,56.49
2022-08-26T13:29:59.160Z,57.26
2022-08-26T13:35:05.706Z,58.38
2022-08-26T13:40:09.222Z,58.71
2022-08-26T13:45:11.964Z,58.87
2022-08-26T13:50:14.817Z,59.17
2022-08-26T13:55:17.303Z,58.79
2022-08-26T14:00:20.517Z,59.03
2022-08-26T14:05:23.168Z,59.21
2022-08-26T14:10:26.642Z,59.02
2022-08-26T14:15:29.257Z,58.72
2022-08-26T14:20:33.219Z,58.93
2022-08-26T14:25:35.544Z,59.14
2022-08-26T14:30:41.238Z,59.48
2022-08-26T14:35:47.180Z,59.30
2022-08-26T14:40:51.247Z,60.08
2022-08-26T14:45:53.561Z,60.43
2022-08-26T14:50:55.906Z,59.78
2022-08-26T14:55:58.269Z,60.09
2022-08-26T15:01:03.212Z,59.75
2022-08-26T15:06:07.482Z,59.76
2022-08-26T15:11:10.395Z,60.50
2022-08-26T15:16:13.227Z,60.78
2022-08-26T15:21:15.620Z,60.90
2022-08-26T15:26:19.513Z,60.15
2022-08-26T15:31:31.133Z,60.31
2022-08-26T15:36:34.294Z,60.15
2022-08-26T15:41:37.267Z,60.09
2022-08-26T15:46:40.814Z,59.96
2022-08-26T15:51:45.656Z,60.04
2022-08-26T15:56:50.677Z,60.47
2022-08-26T16:01:53.235Z,60.15
2022-08-26T16:06:55.747Z,60.38
2022-08-26T16:11:58.495Z,60.55
2022-08-26T16:17:01.116Z,60.78
2022-08-26T16:22:04.919Z,60.96
2022-08-26T16:27:07.284Z,61.53
2022-08-26T16:32:09.659Z,61.43
2022-08-26T16:37:12.021Z,61.58
2022-08-26T16:42:14.340Z,61.88
2022-08-26T16:47:18.489Z,61.85
2022-08-26T16:52:20.849Z,62.11
2022-08-26T16:57:23.296Z,61.98
2022-08-26T17:02:25.645Z,62.04
2022-08-26T17:07:29.090Z,62.17
2022-08-26T17:12:31.597Z,62.31
2022-08-26T17:17:34.672Z,62.51
2022-08-26T17:22:43.802Z,63.72
2022-08-26T17:27:46.487Z,62.81
2022-08-26T17:32:49.627Z,63.40
2022-08-26T17:37:52.098Z,63.72
2022-08-26T17:42:54.622Z,63.74
2022-08-26T17:47:57.173Z,64.22
2022-08-26T17:52:59.468Z,64.34
2022-08-26T17:58:03.924Z,64.45
2022-08-26T18:03:09.520Z,65.01
2022-08-26T18:08:11.809Z,64.93
2022-08-26T18:13:14.954Z,64.90
2022-08-26T18:18:17.243Z,65.04
2022-08-26T18:23:19.537Z,65.68
2022-08-26T18:28:21.960Z,65.84
2022-08-26T18:33:24.360Z,66.50
2022-08-26T18:38:28.315Z,66.21
2022-08-26T18:43:30.726Z,66.61
2022-08-26T18:48:33.632Z,66.79
2022-08-26T18:53:35.967Z,66.68
2022-08-26T18:58:38.253Z,66.73
2022-08-26T19:03:41.690Z,66.58
2022-08-26T19:08:44.961Z,66.40
2022-08-26T19:13:47.344Z,66.41
2022-08-26T19:18:51.668Z,67.00
2022-08-26T19:23:58.879Z,67.51
2022-08-26T19:29:01.238Z,67.21
2022-08-26T19:34:05.277Z,67.41
2022-08-26T19:39:08.356Z,67.67
2022-08-26T19:44:40.456Z,67.58
2022-08-26T19:49:42.823Z,67.38
2022-08-26T19:54:45.079Z,67.77
2022-08-26T19:59:47.433Z,67.67
2022-08-26T20:04:49.707Z,67.74
2022-08-26T20:09:52.004Z,68.01
2022-08-26T20:14:55.128Z,67.95
2022-08-26T20:20:31.642Z,68.21
2022-08-26T20:25:35.976Z,68.61
2022-08-26T20:30:38.317Z,68.62
2022-08-26T20:35:40.634Z,69.14
2022-08-26T20:40:43.662Z,68.93
2022-08-26T20:45:46.392Z,68.64
2022-08-26T20:50:48.744Z,68.89
2022-08-26T20:55:53.725Z,68.76
2022-08-26T21:00:56.708Z,68.88
2022-08-26T21:05:59.090Z,69.24
2022-08-26T21:11:02.181Z,69.16
2022-08-26T21:16:07.162Z,69.08
2022-08-26T21:21:09.966Z,68.70
2022-08-26T21:26:14.512Z,69.33
2022-08-26T21:31:19.464Z,69.18
2022-08-26T21:36:21.896Z,69.09
2022-08-26T21:41:25.869Z,68.96
2022-08-26T21:46:29.833Z,69.17
2022-08-26T21:51:35.113Z,68.96
2022-08-26T21:56:39.919Z,69.25
